Time;durP1;ratioP1;P1;durP2;ratioP2;P2;SDS_P1;SDS_P2;PMS_P1;PMS_P2;Temp;Humidity;BMP_temperature;BMP_pressure;BME280_temperature;BME280_humidity;BME280_pressure;Samples;Min_cycle;Max_cycle;Signal;HPM_P1;HPM_P2
2023/06/17 00:00:30;;;;;;;34.30;28.20;;;;;;;12.77;72.37;96801.86;108629;1251;99978;-71
2023/06/17 00:03:16;;;;;;;29.50;26.30;;;;;;;12.71;72.45;96796.75;108920;1251;95638;-72
2023/06/17 00:05:43;;;;;;;30.90;27.60;;;;;;;12.69;72.53;96797.02;108909;1250;95754;-70
2023/06/17 00:08:10;;;;;;;32.00;28.60;;;;;;;12.68;72.47;96791.92;108916;1250;95638;-72
2023/06/17 00:10:36;;;;;;;31.50;28.10;;;;;;;12.67;72.49;96788.33;108870;1250;95642;-73
2023/06/17 00:13:03;;;;;;;31.10;27.60;;;;;;;12.67;72.59;96790.02;108955;1250;95983;-73
2023/06/17 00:15:32;;;;;;;33.90;29.10;;;;;;;12.69;72.65;96788.53;108927;1251;95938;-74
2023/06/17 00:18:00;;;;;;;31.10;27.80;;;;;;;12.69;72.51;96786.96;108822;1251;103602;-71
2023/06/17 00:20:27;;;;;;;33.40;28.70;;;;;;;12.65;72.45;96788.23;108912;1251;101315;-71
2023/06/17 00:22:53;;;;;;;38.00;28.10;;;;;;;12.57;72.69;96788.88;108922;1251;95998;-72
2023/06/17 00:25:21;;;;;;;30.20;26.90;;;;;;;12.51;72.77;96787.58;108928;1251;95783;-72
2023/06/17 00:27:47;;;;;;;31.50;28.10;;;;;;;12.48;72.94;96789.84;108909;1250;95741;-71
2023/06/17 00:30:14;;;;;;;33.50;29.60;;;;;;;12.47;72.93;96789.89;108912;1249;95843;-71
2023/06/17 00:32:41;;;;;;;32.90;28.70;;;;;;;12.43;72.91;96793.20;108998;1250;96001;-73
2023/06/17 00:35:08;;;;;;;32.10;28.60;;;;;;;12.38;72.89;96792.59;108813;1249;95872;-72
2023/06/17 00:37:35;;;;;;;32.70;27.20;;;;;;;12.32;72.96;96785.58;108623;1251;95697;-72
2023/06/17 00:40:05;;;;;;;30.20;26.90;;;;;;;12.26;73.07;96785.35;108914;1251;95896;-71
2023/06/17 00:42:32;;;;;;;32.30;28.70;;;;;;;12.23;73.15;96787.16;108947;1250;101451;-71
2023/06/17 00:44:59;;;;;;;36.00;29.10;;;;;;;12.21;73.10;96789.77;108705;1250;96683;-74
2023/06/17 00:47:26;;;;;;;33.10;27.70;;;;;;;12.19;73.14;96791.58;108566;1250;95908;-72
2023/06/17 00:49:53;;;;;;;32.10;28.60;;;;;;;12.17;73.09;96786.77;108934;1250;95607;-73
2023/06/17 00:52:20;;;;;;;30.80;27.60;;;;;;;12.12;73.07;96787.27;108919;1250;95966;-71
2023/06/17 00:54:47;;;;;;;30.80;27.50;;;;;;;12.01;73.02;96785.58;108886;1251;96638;-72
2023/06/17 00:57:15;;;;;;;32.60;28.10;;;;;;;11.92;73.13;96787.32;108959;1250;95708;-72
2023/06/17 00:59:44;;;;;;;31.00;27.60;;;;;;;11.87;73.49;96787.92;108580;1251;96160;-72
2023/06/17 01:02:13;;;;;;;31.20;27.70;;;;;;;11.85;73.41;96786.41;108834;1250;112335;-74
2023/06/17 01:04:46;;;;;;;33.50;26.50;;;;;;;11.84;73.53;96792.88;108905;1250;101134;-73
2023/06/17 01:07:35;;;;;;;34.10;27.10;;;;;;;11.78;73.36;96793.58;108639;1249;99506;-73
2023/06/17 01:10:17;;;;;;;34.40;28.50;;;;;;;11.68;73.55;96788.67;108903;1250;95640;-72
2023/06/17 01:12:46;;;;;;;30.50;27.20;;;;;;;11.66;73.82;96783.21;108673;1249;97179;-72
2023/06/17 01:15:16;;;;;;;30.60;26.40;;;;;;;11.62;73.71;96778.41;108791;1250;103846;-72
2023/06/17 01:17:47;;;;;;;32.80;28.50;;;;;;;11.57;73.81;96782.08;108839;1250;101865;-71
2023/06/17 01:20:15;;;;;;;33.50;28.50;;;;;;;11.57;73.75;96784.88;108863;1250;99923;-70
2023/06/17 01:22:45;;;;;;;35.70;29.40;;;;;;;11.55;73.91;96785.86;108838;1250;96338;-70
2023/06/17 01:25:13;;;;;;;32.50;29.10;;;;;;;11.52;74.04;96785.40;108891;1249;96408;-72
2023/06/17 01:27:41;;;;;;;32.80;29.30;;;;;;;11.51;74.16;96783.05;108860;1251;103343;-71
2023/06/17 01:30:08;;;;;;;32.80;29.20;;;;;;;11.45;74.10;96782.79;108597;1250;101271;-72
2023/06/17 01:32:35;;;;;;;34.00;29.40;;;;;;;11.40;74.13;96784.06;108820;1251;100112;-72
2023/06/17 01:35:13;;;;;;;33.60;28.60;;;;;;;11.38;74.26;96782.45;108847;1250;95923;-72
2023/06/17 01:37:50;;;;;;;33.60;27.30;;;;;;;11.34;74.42;96782.79;108983;1249;96484;-72
2023/06/17 01:40:20;;;;;;;32.80;27.20;;;;;;;11.30;74.23;96784.58;108873;1250;103515;-72
2023/06/17 01:42:53;;;;;;;31.10;27.70;;;;;;;11.25;74.28;96786.59;108962;1250;101041;-72
2023/06/17 01:45:20;;;;;;;31.80;27.60;;;;;;;11.21;74.22;96791.25;108936;1250;99985;-72
2023/06/17 01:47:47;;;;;;;32.00;28.60;;;;;;;11.12;74.07;96796.48;108937;1250;95717;-71
2023/06/17 01:50:18;;;;;;;31.10;27.20;;;;;;;11.06;74.45;96796.33;108964;1250;96423;-72
2023/06/17 01:52:45;;;;;;;29.70;26.50;;;;;;;11.10;74.46;96792.53;108972;1250;103388;-71
2023/06/17 01:55:13;;;;;;;30.80;26.30;;;;;;;11.07;74.47;96790.08;108945;1250;101038;-72
2023/06/17 01:57:40;;;;;;;31.40;25.90;;;;;;;11.01;74.60;96794.66;108610;1251;100892;-73
2023/06/17 02:00:07;;;;;;;30.50;26.90;;;;;;;11.02;74.83;96799.22;108774;1251;95807;-71
2023/06/17 02:02:34;;;;;;;31.20;27.10;;;;;;;11.03;74.76;96799.88;108836;1251;95653;-72
2023/06/17 02:05:01;;;;;;;32.40;28.70;;;;;;;11.05;74.93;96803.19;108749;1251;95694;-71
2023/06/17 02:07:28;;;;;;;34.00;28.50;;;;;;;11.06;75.10;96803.71;108943;1250;95636;-72
2023/06/17 02:09:55;;;;;;;31.60;27.20;;;;;;;11.09;75.14;96806.23;108860;1250;95551;-74
2023/06/17 02:12:21;;;;;;;30.70;27.40;;;;;;;11.07;75.13;96808.60;108911;1251;95648;-73
2023/06/17 02:14:48;;;;;;;30.00;26.00;;;;;;;11.07;75.04;96809.89;108993;1250;103046;-74
2023/06/17 02:17:15;;;;;;;30.30;26.00;;;;;;;11.06;74.88;96809.86;108975;1250;95763;-72
2023/06/17 02:19:42;;;;;;;30.00;25.90;;;;;;;11.04;74.84;96806.89;108867;1250;95667;-74
2023/06/17 02:22:09;;;;;;;30.30;26.90;;;;;;;11.00;74.83;96808.27;108874;1251;95954;-74
2023/06/17 02:24:35;;;;;;;29.30;26.20;;;;;;;10.99;74.85;96807.34;108912;1250;95735;-73
2023/06/17 02:27:02;;;;;;;29.60;26.30;;;;;;;10.97;74.77;96808.05;109034;1250;96007;-72
2023/06/17 02:29:29;;;;;;;32.50;27.00;;;;;;;10.90;74.83;96805.95;108902;1250;100168;-72
2023/06/17 02:31:56;;;;;;;29.30;26.20;;;;;;;10.85;75.07;96806.17;108938;1250;96875;-71
2023/06/17 02:34:22;;;;;;;30.00;26.90;;;;;;;10.80;74.94;96807.50;108558;1251;95659;-73
2023/06/17 02:36:49;;;;;;;29.50;25.20;;;;;;;10.78;75.04;96806.69;108847;1251;95868;-72
2023/06/17 02:39:17;;;;;;;29.50;26.30;;;;;;;10.80;75.14;96807.67;108910;1250;95712;-72
2023/06/17 02:41:44;;;;;;;30.00;26.50;;;;;;;10.78;75.15;96810.47;108512;1251;95644;-72
2023/06/17 02:44:10;;;;;;;29.50;25.40;;;;;;;10.71;75.05;96807.54;108947;1250;95795;-72
2023/06/17 02:46:37;;;;;;;29.30;26.10;;;;;;;10.64;75.30;96809.64;108964;1249;103109;-71
2023/06/17 02:49:04;;;;;;;30.00;26.50;;;;;;;10.65;75.40;96814.41;108896;1250;95647;-71
2023/06/17 02:51:30;;;;;;;31.60;25.70;;;;;;;10.63;75.34;96821.75;108859;1250;95915;-71
2023/06/17 02:53:57;;;;;;;29.10;25.50;;;;;;;10.59;75.43;96816.33;108563;1251;95984;-72
2023/06/17 02:56:24;;;;;;;29.20;25.90;;;;;;;10.54;75.65;96820.65;108965;1250;95669;-73
2023/06/17 02:58:51;;;;;;;32.30;27.30;;;;;;;10.53;75.75;96819.24;108656;1251;101397;-73
2023/06/17 03:01:21;;;;;;;34.40;27.60;;;;;;;10.54;75.96;96825.59;108789;1251;95665;-71
2023/06/17 03:03:48;;;;;;;31.20;27.80;;;;;;;10.57;76.08;96826.88;108916;1250;95650;-73
2023/06/17 03:06:14;;;;;;;31.00;27.30;;;;;;;10.62;76.05;96820.55;108910;1249;95584;-72
2023/06/17 03:08:41;;;;;;;30.00;26.80;;;;;;;10.67;75.97;96816.92;108814;1250;95839;-71
2023/06/17 03:11:08;;;;;;;30.50;26.40;;;;;;;10.70;76.06;96815.19;108881;1250;96076;-72
2023/06/17 03:13:35;;;;;;;28.30;25.30;;;;;;;10.74;76.07;96817.66;108830;1250;95683;-70
2023/06/17 03:16:02;;;;;;;29.10;25.50;;;;;;;10.72;75.82;96813.55;108738;1250;95670;-70
2023/06/17 03:18:29;;;;;;;29.20;26.00;;;;;;;10.66;75.82;96817.05;108918;1250;103474;-72
2023/06/17 03:20:56;;;;;;;32.60;26.40;;;;;;;10.67;75.94;96824.40;108805;1251;95743;-71
2023/06/17 03:23:24;;;;;;;30.50;27.00;;;;;;;10.68;75.85;96827.00;108772;1251;95692;-70
2023/06/17 03:25:52;;;;;;;31.40;26.60;;;;;;;10.70;75.91;96823.58;108815;1250;95648;-71
2023/06/17 03:28:19;;;;;;;32.90;27.40;;;;;;;10.74;76.02;96827.38;108835;1251;95570;-72
2023/06/17 03:30:46;;;;;;;33.40;27.30;;;;;;;10.75;76.06;96822.80;108587;1251;95925;-71
2023/06/17 03:33:13;;;;;;;31.90;27.90;;;;;;;10.76;76.15;96828.52;108611;1251;95824;-70
2023/06/17 03:35:40;;;;;;;36.20;28.70;;;;;;;10.75;76.12;96830.98;108588;1251;95657;-70
2023/06/17 03:38:08;;;;;;;36.10;28.70;;;;;;;10.73;76.25;96829.41;108784;1251;95579;-72
2023/06/17 03:40:34;;;;;;;34.20;29.30;;;;;;;10.76;76.39;96827.81;108830;1251;95875;-71
2023/06/17 03:43:01;;;;;;;34.60;29.20;;;;;;;10.80;76.20;96826.31;108809;1251;96150;-72
2023/06/17 03:45:30;;;;;;;39.50;30.70;;;;;;;10.80;76.14;96820.63;108962;1249;95790;-70
2023/06/17 03:47:58;;;;;;;39.70;32.30;;;;;;;10.76;76.19;96816.47;108681;1251;95566;-71
2023/06/17 03:50:25;;;;;;;41.40;32.30;;;;;;;10.75;76.43;96820.48;108731;1250;96121;-72
2023/06/17 03:52:52;;;;;;;37.80;30.40;;;;;;;10.73;76.51;96823.14;108944;1250;95625;-70
2023/06/17 03:55:19;;;;;;;40.30;32.30;;;;;;;10.71;76.50;96824.27;108597;1251;96077;-71
2023/06/17 03:57:46;;;;;;;39.00;32.60;;;;;;;10.68;76.58;96823.69;108762;1251;176312;-71
2023/06/17 04:00:13;;;;;;;36.40;31.60;;;;;;;10.69;76.82;96822.55;108886;1250;95885;-72
2023/06/17 04:02:41;;;;;;;39.50;32.20;;;;;;;10.75;76.80;96819.35;108622;1251;95809;-72
2023/06/17 04:05:09;;;;;;;38.10;31.60;;;;;;;10.79;76.79;96821.10;108747;1252;95873;-70
2023/06/17 04:07:38;;;;;;;37.90;32.80;;;;;;;10.82;76.87;96815.41;108827;1251;95972;-71
2023/06/17 04:10:07;;;;;;;36.80;30.10;;;;;;;10.85;76.85;96816.38;108572;1249;99802;-71
2023/06/17 04:12:38;;;;;;;39.40;31.80;;;;;;;10.88;76.76;96816.16;108836;1249;95609;-69
2023/06/17 04:15:07;;;;;;;39.30;32.40;;;;;;;10.90;76.94;96819.46;108877;1250;95982;-72
2023/06/17 04:17:36;;;;;;;36.50;32.30;;;;;;;10.90;77.07;96819.79;108798;1253;103739;-71
2023/06/17 04:20:10;;;;;;;36.50;31.10;;;;;;;10.90;77.02;96814.77;108850;1251;110861;-71
2023/06/17 04:22:38;;;;;;;36.90;31.40;;;;;;;10.92;77.08;96819.94;108845;1250;99905;-71
2023/06/17 04:25:07;;;;;;;37.90;31.70;;;;;;;10.96;77.20;96822.63;108918;1250;95599;-71
2023/06/17 04:27:39;;;;;;;35.80;30.50;;;;;;;11.03;77.32;96822.48;108665;1251;96013;-70
2023/06/17 04:30:07;;;;;;;;;;;;;;;11.11;77.44;96823.63;108807;1251;103255;-72
2023/06/17 04:32:38;;;;;;;35.30;29.00;;;;;;;11.19;77.51;96821.61;108826;1251;101522;-69
2023/06/17 04:35:05;;;;;;;36.00;29.00;;;;;;;11.27;77.55;96816.00;108889;1250;99917;-71
2023/06/17 04:37:33;;;;;;;35.70;30.70;;;;;;;11.34;77.69;96816.40;108866;1250;95569;-71
2023/06/17 04:39:59;;;;;;;37.10;32.70;;;;;;;11.43;77.72;96817.98;108869;1250;95799;-72
2023/06/17 04:42:27;;;;;;;36.60;30.80;;;;;;;11.49;77.76;96819.37;108856;1251;95902;-70
2023/06/17 04:44:54;;;;;;;35.40;30.40;;;;;;;11.54;77.75;96822.97;108963;1251;95626;-70
2023/06/17 04:47:21;;;;;;;35.20;29.90;;;;;;;11.56;77.60;96824.27;108931;1249;95725;-71
2023/06/17 04:49:47;;;;;;;35.50;31.60;;;;;;;11.60;77.81;96823.29;108929;1250;95890;-71
2023/06/17 04:52:14;;;;;;;35.70;30.80;;;;;;;11.64;77.85;96826.55;109015;1250;95705;-71
2023/06/17 04:54:41;;;;;;;35.80;30.50;;;;;;;11.68;77.80;96827.44;108947;1250;101320;-72
2023/06/17 04:57:08;;;;;;;35.50;30.90;;;;;;;11.72;77.95;96827.70;108799;1251;95684;-72
2023/06/17 04:59:35;;;;;;;36.50;31.90;;;;;;;11.77;77.98;96828.33;108835;1250;95798;-71
2023/06/17 05:02:01;;;;;;;36.70;32.00;;;;;;;11.80;78.06;96827.94;108902;1250;95647;-72
2023/06/17 05:04:28;;;;;;;35.00;31.20;;;;;;;11.85;78.11;96830.98;108888;1249;95907;-72
2023/06/17 05:06:56;;;;;;;34.50;30.80;;;;;;;11.93;78.27;96832.83;108880;1251;95651;-73
2023/06/17 05:09:22;;;;;;;34.40;30.70;;;;;;;11.97;78.36;96834.44;108787;1251;95601;-74
2023/06/17 05:11:50;;;;;;;35.60;30.90;;;;;;;12.06;78.41;96836.88;108896;1250;95612;-72
2023/06/17 05:14:16;;;;;;;33.90;30.30;;;;;;;12.12;78.22;96834.32;108909;1250;95589;-71
2023/06/17 05:16:43;;;;;;;37.90;32.20;;;;;;;12.18;78.26;96836.90;108828;1251;95600;-73
2023/06/17 05:19:10;;;;;;;38.10;32.70;;;;;;;12.25;78.25;96830.84;108880;1250;95574;-72
2023/06/17 05:21:37;;;;;;;39.80;33.30;;;;;;;12.34;78.36;96834.98;108605;1251;96025;-72
2023/06/17 05:24:04;;;;;;;39.70;33.30;;;;;;;12.43;78.42;96835.13;108843;1251;103788;-72
2023/06/17 05:26:31;;;;;;;38.60;32.20;;;;;;;12.53;78.54;96834.55;108744;1250;95710;-73
2023/06/17 05:28:57;;;;;;;40.20;32.20;;;;;;;12.65;78.64;96836.38;108830;1250;95605;-72
2023/06/17 05:31:24;;;;;;;38.80;30.80;;;;;;;12.78;78.71;96837.70;108902;1250;95612;-73
2023/06/17 05:33:51;;;;;;;37.50;31.40;;;;;;;12.93;78.81;96835.93;108835;1251;95627;-71
2023/06/17 05:36:18;;;;;;;32.80;28.20;;;;;;;13.10;78.71;96833.91;108622;1252;95775;-72
2023/06/17 05:38:44;;;;;;;31.70;27.50;;;;;;;13.26;78.47;96828.59;108766;1251;99625;-72
2023/06/17 05:41:11;;;;;;;34.10;28.30;;;;;;;13.40;78.56;96823.16;108782;1253;95557;-72
2023/06/17 05:43:38;;;;;;;30.20;26.80;;;;;;;13.53;78.80;96829.36;108882;1250;95561;-73
2023/06/17 05:46:05;;;;;;;32.10;27.50;;;;;;;13.66;78.70;96836.27;108627;1250;96056;-73
2023/06/17 05:48:31;;;;;;;31.00;26.40;;;;;;;13.78;78.56;96833.92;109019;1250;96063;-74
2023/06/17 05:50:58;;;;;;;31.80;26.10;;;;;;;13.90;78.54;96835.77;108834;1250;95579;-74
2023/06/17 05:53:24;;;;;;;31.50;25.30;;;;;;;14.02;78.48;96834.61;108762;1251;95699;-72
2023/06/17 05:55:51;;;;;;;29.10;25.00;;;;;;;14.14;78.55;96834.46;108916;1250;95712;-73
2023/06/17 05:58:18;;;;;;;29.30;23.20;;;;;;;14.25;78.41;96833.55;108904;1250;95674;-74
2023/06/17 06:00:46;;;;;;;27.90;22.20;;;;;;;14.36;78.30;96836.44;108884;1251;95949;-73
2023/06/17 06:03:12;;;;;;;25.20;20.80;;;;;;;14.49;78.05;96834.46;108863;1250;96042;-72
2023/06/17 06:05:39;;;;;;;20.10;17.60;;;;;;;14.61;77.69;96829.66;108877;1250;95633;-74
2023/06/17 06:08:06;;;;;;;18.00;14.80;;;;;;;14.73;77.56;96832.15;108534;1251;95718;-72
2023/06/17 06:10:33;;;;;;;16.20;14.00;;;;;;;14.85;76.95;96827.52;108851;1250;95693;-74
2023/06/17 06:13:00;;;;;;;16.80;13.50;;;;;;;14.97;76.34;96829.31;108892;1250;95769;-72
2023/06/17 06:15:26;;;;;;;18.50;13.30;;;;;;;15.07;75.96;96831.61;108882;1250;103543;-72
2023/06/17 06:17:53;;;;;;;21.00;13.10;;;;;;;15.18;75.82;96834.99;108574;1251;96081;-73
2023/06/17 06:20:20;;;;;;;18.80;12.30;;;;;;;15.27;75.92;96839.72;108628;1251;95713;-75
2023/06/17 06:22:46;;;;;;;16.30;11.70;;;;;;;15.36;75.77;96838.08;108584;1249;95631;-73
2023/06/17 06:25:13;;;;;;;16.50;11.80;;;;;;;15.44;75.34;96838.94;108891;1251;95599;-72
2023/06/17 06:27:40;;;;;;;15.40;12.10;;;;;;;15.50;75.12;96842.27;108781;1251;101301;-71
2023/06/17 06:30:07;;;;;;;21.30;12.10;;;;;;;15.58;74.80;96843.40;108901;1250;96008;-69
2023/06/17 06:32:34;;;;;;;13.60;11.70;;;;;;;15.65;74.47;96847.02;108484;1256;95656;-70
2023/06/17 06:35:02;;;;;;;14.40;11.50;;;;;;;15.72;74.28;96842.73;108804;1251;95632;-69
2023/06/17 06:37:29;;;;;;;15.70;11.90;;;;;;;15.79;73.91;96844.48;108888;1250;95676;-71
2023/06/17 06:39:56;;;;;;;16.10;12.20;;;;;;;15.86;73.68;96844.92;108604;1251;96113;-70
2023/06/17 06:42:22;;;;;;;16.30;12.10;;;;;;;15.94;73.51;96845.83;108880;1251;95616;-70
2023/06/17 06:44:49;;;;;;;13.10;11.70;;;;;;;16.03;73.29;96843.18;108909;1251;95563;-69
2023/06/17 06:47:16;;;;;;;13.80;12.40;;;;;;;16.11;73.02;96842.32;108841;1250;103709;-71
2023/06/17 06:49:43;;;;;;;15.30;13.00;;;;;;;16.21;72.99;96844.90;108946;1250;95806;-70
2023/06/17 06:52:09;;;;;;;16.30;13.20;;;;;;;16.31;72.92;96844.75;108961;1249;95681;-70
2023/06/17 06:54:36;;;;;;;15.90;13.10;;;;;;;16.40;72.56;96841.77;108949;1250;95639;-71
2023/06/17 06:57:03;;;;;;;15.20;13.20;;;;;;;16.47;72.35;96842.36;108947;1250;96458;-71
2023/06/17 06:59:30;;;;;;;16.30;14.00;;;;;;;16.54;72.21;96841.21;108826;1251;100404;-70
2023/06/17 07:01:57;;;;;;;15.00;13.40;;;;;;;16.63;71.89;96841.41;108794;1251;96030;-71
2023/06/17 07:04:23;;;;;;;15.20;13.60;;;;;;;16.69;71.72;96838.73;108837;1251;95885;-69
2023/06/17 07:06:50;;;;;;;17.90;14.20;;;;;;;16.76;71.52;96836.10;108548;1251;95746;-70
2023/06/17 07:09:23;;;;;;;16.30;14.60;;;;;;;16.82;71.30;96837.48;108789;1251;95920;-71
2023/06/17 07:11:49;;;;;;;;;;;;;;;16.88;71.14;96836.80;108675;1251;97955;-69
2023/06/17 07:14:16;;;;;;;19.00;14.20;;;;;;;16.94;70.98;96836.71;108867;1251;95762;-70
2023/06/17 07:16:43;;;;;;;17.60;14.60;;;;;;;17.04;70.81;96837.52;108500;1251;95696;-70
2023/06/17 07:19:09;;;;;;;18.70;15.30;;;;;;;17.16;70.82;96832.13;108935;1250;95792;-70
2023/06/17 07:21:36;;;;;;;17.90;14.30;;;;;;;17.27;70.68;96828.73;108810;1251;95925;-70
2023/06/17 07:24:03;;;;;;;17.90;14.50;;;;;;;17.35;70.27;96823.30;108489;1255;95663;-69
2023/06/17 07:26:30;;;;;;;16.40;14.50;;;;;;;17.42;70.04;96824.41;108572;1252;95830;-70
2023/06/17 07:29:00;;;;;;;18.10;15.40;;;;;;;17.50;70.25;96824.44;108851;1250;95924;-69
2023/06/17 07:31:30;;;;;;;17.60;15.70;;;;;;;17.60;70.15;96825.77;108875;1250;101272;-70
2023/06/17 07:33:57;;;;;;;19.50;17.10;;;;;;;17.69;69.68;96825.05;108858;1250;100162;-71
2023/06/17 07:36:30;;;;;;;18.90;15.80;;;;;;;17.77;69.59;96827.68;108815;1251;95813;-70
2023/06/17 07:38:57;;;;;;;17.40;15.60;;;;;;;17.87;69.71;96828.40;108596;1251;97280;-69
2023/06/17 07:41:24;;;;;;;19.60;16.10;;;;;;;17.97;69.42;96829.77;108837;1251;97014;-69
2023/06/17 07:43:51;;;;;;;18.00;16.10;;;;;;;18.07;68.97;96827.65;108865;1251;96012;-69
2023/06/17 07:46:18;;;;;;;17.90;15.80;;;;;;;18.14;68.88;96822.84;108917;1250;96581;-69
2023/06/17 07:48:44;;;;;;;18.10;16.20;;;;;;;18.15;68.45;96820.66;108791;1251;95676;-70
2023/06/17 07:51:11;;;;;;;18.00;15.80;;;;;;;18.21;68.52;96822.80;108649;1250;96680;-71
2023/06/17 07:53:38;;;;;;;17.50;15.60;;;;;;;18.23;68.21;96826.71;108977;1250;95589;-71
2023/06/17 07:56:06;;;;;;;17.80;14.90;;;;;;;18.29;67.79;96826.39;108943;1249;99741;-69
2023/06/17 07:58:32;;;;;;;16.40;14.80;;;;;;;18.43;67.73;96826.70;108889;1249;95823;-69
2023/06/17 08:01:00;;;;;;;14.60;13.20;;;;;;;18.67;67.77;96824.71;108869;1249;95927;-70
2023/06/17 08:03:27;;;;;;;15.70;13.50;;;;;;;19.02;68.03;96823.74;108862;1250;95708;-69
2023/06/17 08:05:54;;;;;;;20.40;13.30;;;;;;;19.33;67.68;96824.71;108801;1251;95688;-70
2023/06/17 08:08:21;;;;;;;13.40;12.00;;;;;;;19.59;66.90;96821.89;108790;1251;96013;-70
2023/06/17 08:10:48;;;;;;;13.40;11.90;;;;;;;19.96;66.34;96818.00;108698;1251;95658;-69
2023/06/17 08:13:15;;;;;;;13.70;12.20;;;;;;;20.39;65.78;96821.00;108739;1250;96011;-70
2023/06/17 08:15:42;;;;;;;13.10;11.80;;;;;;;20.83;65.46;96819.42;108652;1251;95810;-69
2023/06/17 08:18:09;;;;;;;15.50;11.40;;;;;;;21.25;64.83;96817.41;108967;1251;95938;-70
2023/06/17 08:20:36;;;;;;;12.80;11.40;;;;;;;21.65;63.81;96812.48;108616;1251;96016;-70
2023/06/17 08:23:03;;;;;;;14.70;11.00;;;;;;;22.01;62.73;96809.83;108505;1251;95652;-73
2023/06/17 08:25:31;;;;;;;12.30;10.10;;;;;;;22.29;62.47;96813.13;108873;1250;95937;-71
2023/06/17 08:27:58;;;;;;;12.80;10.50;;;;;;;22.24;61.26;96813.33;108672;1251;95638;-72
2023/06/17 08:30:25;;;;;;;12.80;10.20;;;;;;;22.10;60.62;96814.55;108827;1251;96163;-72
2023/06/17 08:32:52;;;;;;;13.00;10.00;;;;;;;21.92;59.91;96816.89;108356;1251;95751;-71
2023/06/17 08:35:19;;;;;;;11.60;9.80;;;;;;;21.79;59.68;96818.61;108926;1250;96909;-72
2023/06/17 08:37:46;;;;;;;10.70;9.60;;;;;;;21.76;59.80;96815.89;109060;1250;96085;-72
2023/06/17 08:40:14;;;;;;;11.20;10.00;;;;;;;21.78;59.46;96810.50;108870;1250;99091;-72
2023/06/17 08:42:42;;;;;;;11.50;9.40;;;;;;;21.99;59.84;96813.83;108783;1249;95855;-72
2023/06/17 08:45:10;;;;;;;11.00;8.30;;;;;;;21.93;59.34;96816.77;108903;1250;95650;-72
2023/06/17 08:47:37;;;;;;;10.10;9.10;;;;;;;21.67;59.26;96818.84;108940;1249;103225;-73
2023/06/17 08:50:06;;;;;;;10.40;8.70;;;;;;;21.78;59.13;96819.77;108929;1249;96377;-73
2023/06/17 08:52:36;;;;;;;8.70;7.80;;;;;;;22.30;58.53;96816.95;108849;1251;100153;-74
2023/06/17 08:55:03;;;;;;;14.70;8.30;;;;;;;22.82;57.93;96821.82;108838;1250;95633;-71
2023/06/17 08:57:31;;;;;;;10.60;8.10;;;;;;;23.22;57.56;96819.64;108893;1251;95873;-72
2023/06/17 08:59:58;;;;;;;8.40;7.60;;;;;;;23.52;56.40;96820.51;108854;1250;103193;-72
2023/06/17 09:02:25;;;;;;;9.90;8.70;;;;;;;23.56;55.43;96818.99;108953;1251;95941;-72
2023/06/17 09:04:52;;;;;;;8.50;7.40;;;;;;;23.72;55.30;96822.00;108868;1251;95694;-73
2023/06/17 09:07:19;;;;;;;12.80;8.00;;;;;;;23.93;55.45;96814.45;108826;1251;96577;-72
2023/06/17 09:10:09;;;;;;;9.20;7.50;;;;;;;24.15;55.62;96815.98;108793;1252;95615;-75
2023/06/17 09:12:39;;;;;;;10.00;8.40;;;;;;;24.20;54.63;96819.90;108548;1251;104724;-75
2023/06/17 09:15:16;;;;;;;8.90;7.20;;;;;;;24.45;54.27;96823.77;108897;1251;101316;-73
2023/06/17 09:17:44;;;;;;;9.10;8.10;;;;;;;24.42;53.39;96820.77;108821;1250;99532;-72
2023/06/17 09:20:14;;;;;;;10.60;7.60;;;;;;;24.44;53.15;96819.16;108819;1251;95911;-74
2023/06/17 09:22:43;;;;;;;10.70;7.50;;;;;;;24.24;52.45;96817.98;108846;1251;95992;-72
2023/06/17 09:25:18;;;;;;;11.70;7.70;;;;;;;23.93;52.40;96820.03;108776;1254;103484;-72
2023/06/17 09:27:52;;;;;;;11.40;7.20;;;;;;;23.75;52.32;96819.96;108746;1251;101321;-74
2023/06/17 09:30:22;;;;;;;8.50;7.70;;;;;;;23.67;52.20;96816.39;108791;1250;100204;-72
2023/06/17 09:32:52;;;;;;;10.80;7.40;;;;;;;23.58;51.88;96814.38;108557;1249;95906;-72
2023/06/17 09:35:19;;;;;;;9.20;7.50;;;;;;;23.46;51.60;96815.28;108764;1251;95719;-72
2023/06/17 09:37:53;;;;;;;8.50;7.60;;;;;;;23.34;51.65;96817.83;108881;1251;95647;-73
2023/06/17 09:40:28;;;;;;;7.70;6.90;;;;;;;23.18;51.71;96816.90;108972;1250;101282;-73
2023/06/17 09:42:59;;;;;;;11.10;7.40;;;;;;;22.91;51.97;96820.13;108918;1249;99966;-71
2023/06/17 09:45:26;;;;;;;10.70;7.30;;;;;;;22.64;52.35;96821.60;108944;1250;95644;-72
2023/06/17 09:47:54;;;;;;;10.80;7.80;;;;;;;22.54;52.51;96822.17;108921;1249;96027;-70
2023/06/17 09:50:23;;;;;;;11.20;7.90;;;;;;;22.47;52.54;96819.41;108611;1250;103845;-72
2023/06/17 09:52:52;;;;;;;8.60;7.70;;;;;;;22.39;52.37;96816.16;108939;1251;101429;-72
2023/06/17 09:55:20;;;;;;;8.80;7.40;;;;;;;22.20;52.38;96816.48;108896;1251;100020;-71
2023/06/17 09:57:53;;;;;;;9.70;6.90;;;;;;;21.90;52.84;96817.41;108861;1250;95834;-72
2023/06/17 10:00:24;;;;;;;10.00;7.40;;;;;;;21.79;53.19;96810.26;108885;1249;95719;-72
2023/06/17 10:02:53;;;;;;;11.50;8.50;;;;;;;21.72;53.26;96806.52;108621;1250;103289;-74
2023/06/17 10:05:21;;;;;;;9.60;7.20;;;;;;;21.69;52.87;96805.14;108975;1249;101220;-71
2023/06/17 10:07:53;;;;;;;10.00;6.70;;;;;;;21.69;52.69;96802.66;108951;1249;100072;-71
2023/06/17 10:10:22;;;;;;;7.00;6.00;;;;;;;21.70;52.33;96803.27;108923;1251;96980;-72
2023/06/17 10:12:53;;;;;;;9.20;6.80;;;;;;;21.70;52.23;96801.23;108653;1249;95894;-72
2023/06/17 10:15:22;;;;;;;7.20;6.20;;;;;;;21.76;52.05;96798.82;108834;1250;103188;-71
2023/06/17 10:17:51;;;;;;;8.10;6.70;;;;;;;21.97;52.07;96801.04;108935;1250;101678;-72
2023/06/17 10:20:19;;;;;;;7.90;7.00;;;;;;;22.27;51.99;96798.80;108640;1250;99594;-71
2023/06/17 10:22:50;;;;;;;7.50;6.80;;;;;;;22.62;51.89;96800.23;108945;1250;95570;-74
2023/06/17 10:25:16;;;;;;;9.30;7.00;;;;;;;22.97;51.55;96804.83;108715;1250;96334;-74
2023/06/17 10:27:44;;;;;;;8.90;7.20;;;;;;;23.24;50.97;96803.67;108871;1251;95659;-72
2023/06/17 10:30:25;;;;;;;9.70;7.30;;;;;;;23.48;50.43;96802.23;108601;1251;95793;-71
2023/06/17 10:32:59;;;;;;;8.70;6.80;;;;;;;23.80;50.32;96802.08;108952;1250;100023;-71
2023/06/17 10:35:44;;;;;;;8.10;7.30;;;;;;;24.15;49.56;96797.45;108842;1250;95808;-74
2023/06/17 10:38:30;;;;;;;7.40;6.40;;;;;;;24.51;49.21;96800.77;108927;1250;95750;-71
2023/06/17 10:40:57;;;;;;;20.50;5.60;;;;;;;24.85;48.51;96799.88;108889;1251;103232;-71
2023/06/17 10:43:24;;;;;;;5.50;4.80;;;;;;;25.05;47.91;96801.04;108918;1250;95744;-72
2023/06/17 10:45:52;;;;;;;10.10;5.20;;;;;;;25.19;47.59;96798.33;108828;1250;95781;-74
2023/06/17 10:48:33;;;;;;;5.70;5.10;;;;;;;25.27;46.87;96801.60;108857;1251;95581;-74
2023/06/17 10:51:10;;;;;;;7.60;5.10;;;;;;;25.41;46.12;96802.61;108840;1250;95830;-73
2023/06/17 10:53:40;;;;;;;8.20;5.60;;;;;;;25.59;46.31;96792.33;108895;1250;103553;-72
2023/06/17 10:56:07;;;;;;;6.80;5.60;;;;;;;25.75;46.13;96785.60;108657;1250;101143;-72
2023/06/17 10:58:46;;;;;;;8.70;6.00;;;;;;;25.91;45.34;96784.09;108737;1249;95788;-75
2023/06/17 11:01:14;;;;;;;8.70;5.40;;;;;;;26.09;45.01;96781.84;108494;1251;95717;-72
2023/06/17 11:03:41;;;;;;;7.20;5.60;;;;;;;26.22;44.84;96778.73;108846;1250;95611;-72
2023/06/17 11:06:13;;;;;;;10.20;5.90;;;;;;;26.20;45.33;96781.83;108654;1250;96031;-72
2023/06/17 11:08:40;;;;;;;7.70;5.50;;;;;;;26.12;44.31;96783.23;108851;1251;101247;-72
2023/06/17 11:11:08;;;;;;;8.50;6.20;;;;;;;26.27;43.81;96776.72;108786;1251;95606;-72
2023/06/17 11:13:38;;;;;;;6.20;5.60;;;;;;;26.47;43.93;96776.29;108832;1250;95709;-73
2023/06/17 11:16:05;;;;;;;9.60;5.80;;;;;;;26.51;43.23;96777.64;108607;1250;95675;-74